createdAt,value
2022-08-12T00:02:03.610Z,45.07
2022-08-12T00:04:52.583Z,45.24
2022-08-12T00:07:38.281Z,45.60
2022-08-12T00:10:24.183Z,45.76
2022-08-12T00:13:09.569Z,45.41
2022-08-12T00:15:55.171Z,46.31
2022-08-12T00:18:40.739Z,46.97
2022-08-12T00:21:26.693Z,47.16
2022-08-12T00:24:13.037Z,47.48
2022-08-12T00:27:00.691Z,47.96
2022-08-12T00:29:48.094Z,48.28
2022-08-12T00:32:35.447Z,47.48
2022-08-12T00:35:28.401Z,47.75
2022-08-12T00:38:22.808Z,48.33
2022-08-12T00:41:08.238Z,48.48
2022-08-12T00:43:36.188Z,48.79
2022-08-12T00:46:22.260Z,49.04
2022-08-12T00:48:50.002Z,48.84
2022-08-12T00:51:16.813Z,48.61
2022-08-12T00:53:44.415Z,48.91
2022-08-12T00:56:10.956Z,49.61
2022-08-12T00:58:46.108Z,49.14
2022-08-12T01:01:15.455Z,49.63
2022-08-12T01:04:05.590Z,49.87
2022-08-12T01:06:53.905Z,50.03
2022-08-12T01:09:40.957Z,49.85
2022-08-12T01:12:09.957Z,49.86
2022-08-12T01:14:37.275Z,50.07
2022-08-12T01:17:03.901Z,50.12
2022-08-12T01:19:31.125Z,50.54
2022-08-12T01:22:12.709Z,50.42
2022-08-12T01:24:58.397Z,50.33
2022-08-12T01:27:27.509Z,50.20
2022-08-12T01:29:56.729Z,50.54
2022-08-12T01:32:26.713Z,50.91
2022-08-12T01:35:02.912Z,50.65
2022-08-12T01:37:31.080Z,50.73
2022-08-12T01:40:34.371Z,51.23
2022-08-12T01:42:48.650Z,51.42
2022-08-12T01:45:17.560Z,51.63
2022-08-12T01:48:23.805Z,51.58
2022-08-12T01:52:20.309Z,51.81
2022-08-12T01:54:16.693Z,51.64
2022-08-12T01:56:55.087Z,51.78
2022-08-12T01:59:49.664Z,52.06
2022-08-12T02:02:28.017Z,52.44
2022-08-12T02:05:31.212Z,52.92
2022-08-12T02:08:45.197Z,53.51
2022-08-12T02:11:29.351Z,53.80
2022-08-12T02:14:36.989Z,54.08
2022-08-12T02:17:55.852Z,54.03
2022-08-12T02:20:43.893Z,54.01
2022-08-12T02:23:23.102Z,54.10
2022-08-12T02:25:50.974Z,54.21
2022-08-12T02:28:17.662Z,54.24
2022-08-12T02:30:44.446Z,54.39
2022-08-12T02:33:11.696Z,54.61
2022-08-12T02:35:39.423Z,54.66
2022-08-12T02:38:09.544Z,54.85
2022-08-12T02:40:38.378Z,55.13
2022-08-12T02:43:14.143Z,55.34
2022-08-12T02:45:51.445Z,55.45
2022-08-12T02:48:27.084Z,55.90
2022-08-12T02:50:57.597Z,55.94
2022-08-12T02:53:25.978Z,56.24
2022-08-12T02:55:52.519Z,56.36
2022-08-12T02:58:19.811Z,56.34
2022-08-12T03:00:46.882Z,56.46
2022-08-12T03:03:14.742Z,56.52
2022-08-12T03:05:50.798Z,56.63
2022-08-12T03:08:32.784Z,56.78
2022-08-12T03:11:09.550Z,57.11
2022-08-12T03:13:45.557Z,57.25
2022-08-12T03:16:12.561Z,57.32
2022-08-12T03:18:45.736Z,57.60
2022-08-12T03:21:15.395Z,57.83
2022-08-12T03:23:42.971Z,58.11
2022-08-12T03:26:09.855Z,58.26
2022-08-12T03:28:54.230Z,58.47
2022-08-12T03:31:35.102Z,58.67
2022-08-12T03:34:08.300Z,58.68
2022-08-12T03:36:37.155Z,58.63
2022-08-12T03:39:17.767Z,58.68
2022-08-12T03:41:51.103Z,58.93
2022-08-12T03:45:12.895Z,59.20
2022-08-12T03:48:31.730Z,59.12
2022-08-12T03:51:17.794Z,59.25
2022-08-12T03:54:03.791Z,59.58
2022-08-12T03:56:51.117Z,59.49
2022-08-12T03:59:35.965Z,59.68
2022-08-12T04:02:02.527Z,59.90
2022-08-12T04:04:33.973Z,59.93
2022-08-12T04:07:03.119Z,59.93
2022-08-12T04:09:30.468Z,59.80
2022-08-12T04:12:15.704Z,59.84
2022-08-12T04:14:42.204Z,60.11
2022-08-12T04:17:08.935Z,60.34
2022-08-12T04:19:37.170Z,60.33
2022-08-12T04:22:04.065Z,60.54
2022-08-12T04:24:34.961Z,60.90
2022-08-12T04:27:05.633Z,60.97
2022-08-12T04:30:31.214Z,60.87
2022-08-12T04:32:19.049Z,61.06
2022-08-12T04:34:45.867Z,61.28
2022-08-12T04:37:13.128Z,61.51
2022-08-12T04:39:40.380Z,61.35
2022-08-12T04:42:07.037Z,61.54
2022-08-12T04:44:34.496Z,61.91
2022-08-12T04:47:01.484Z,62.12
2022-08-12T04:49:30.194Z,62.25
2022-08-12T04:51:59.518Z,62.28
2022-08-12T04:54:27.745Z,62.34
2022-08-12T04:57:04.753Z,62.55
2022-08-12T04:59:43.725Z,62.89
2022-08-12T05:02:17.179Z,63.52
2022-08-12T05:04:49.504Z,63.94
2022-08-12T05:07:15.973Z,64.10
2022-08-12T05:10:00.362Z,64.53
2022-08-12T05:12:34.794Z,64.57
2022-08-12T05:15:01.650Z,64.94
2022-08-12T05:17:28.449Z,65.32
2022-08-12T05:19:57.196Z,65.52
2022-08-12T05:22:25.710Z,65.58
2022-08-12T05:24:52.575Z,65.24
2022-08-12T05:27:19.018Z,65.43
2022-08-12T05:30:06.892Z,65.55
2022-08-12T05:32:36.551Z,65.46
2022-08-12T05:35:06.644Z,65.38
2022-08-12T05:37:34.683Z,65.42
2022-08-12T05:40:05.646Z,64.85
2022-08-12T05:42:35.096Z,64.48
2022-08-12T05:45:01.596Z,64.32
2022-08-12T05:47:53.054Z,64.28
2022-08-12T05:50:15.851Z,64.09
2022-08-12T05:52:42.602Z,64.34
2022-08-12T05:55:10.332Z,64.51
2022-08-12T05:57:38.488Z,66.18
2022-08-12T06:00:05.957Z,67.69
2022-08-12T06:02:38.174Z,68.81
2022-08-12T06:05:10.377Z,69.62
2022-08-12T06:07:59.395Z,70.24
2022-08-12T06:10:32.519Z,70.26
2022-08-12T06:13:07.244Z,69.57
2022-08-12T06:15:37.854Z,69.01
2022-08-12T06:18:16.101Z,69.33
2022-08-12T06:20:46.459Z,70.47
2022-08-12T06:23:15.232Z,69.78
2022-08-12T06:25:43.461Z,68.92
2022-08-12T06:28:19.406Z,67.73
2022-08-12T06:30:53.041Z,68.88
2022-08-12T06:33:59.620Z,66.58
2022-08-12T06:36:21.765Z,66.02
2022-08-12T06:38:49.416Z,64.70
2022-08-12T06:41:35.419Z,64.12
2022-08-12T06:44:04.825Z,63.92
2022-08-12T06:46:36.716Z,62.36
2022-08-12T06:49:03.521Z,62.25
2022-08-12T06:51:32.125Z,61.41
2022-08-12T06:54:00.409Z,60.41
2022-08-12T06:56:40.206Z,60.19
2022-08-12T06:59:14.578Z,58.99
2022-08-12T07:01:41.124Z,57.32
2022-08-12T07:04:35.867Z,57.79
2022-08-12T07:07:05.362Z,55.04
2022-08-12T07:10:06.762Z,52.88
2022-08-12T07:12:19.706Z,50.19
2022-08-12T07:14:50.409Z,49.54
2022-08-12T07:17:17.175Z,49.34
2022-08-12T07:19:45.411Z,50.55
2022-08-12T07:22:13.974Z,49.52
2022-08-12T07:24:40.423Z,49.18
2022-08-12T07:27:06.978Z,48.52
2022-08-12T07:29:59.989Z,50.03
2022-08-12T07:32:24.269Z,48.72
2022-08-12T07:34:50.695Z,47.58
2022-08-12T07:37:17.747Z,47.29
2022-08-12T07:39:51.341Z,46.83
2022-08-12T07:42:26.898Z,46.33
2022-08-12T07:44:53.390Z,45.30
2022-08-12T07:47:19.969Z,45.01
2022-08-12T07:50:05.200Z,44.05
2022-08-12T07:52:38.283Z,44.61
2022-08-12T07:55:06.121Z,45.01
2022-08-12T07:57:32.820Z,44.38
2022-08-12T08:00:06.638Z,43.84
2022-08-12T08:02:36.983Z,43.94
2022-08-12T08:05:04.733Z,43.35
2022-08-12T08:07:31.648Z,44.03
2022-08-12T08:10:04.933Z,44.05
2022-08-12T08:12:49.718Z,43.09
2022-08-12T08:15:16.816Z,41.28
2022-08-12T08:17:56.490Z,40.26
2022-08-12T08:20:28.129Z,40.74
2022-08-12T08:22:56.420Z,41.42
2022-08-12T08:25:36.791Z,40.51
2022-08-12T08:28:16.198Z,39.78
2022-08-12T08:30:45.708Z,39.55
2022-08-12T08:33:22.943Z,38.69
2022-08-12T08:36:02.274Z,38.90
2022-08-12T08:38:33.284Z,39.65
2022-08-12T08:42:18.739Z,39.29
2022-08-12T08:44:13.331Z,39.11
2022-08-12T08:46:40.837Z,38.96
2022-08-12T08:49:08.053Z,38.93
2022-08-12T08:51:35.108Z,38.63
2022-08-12T08:54:01.848Z,38.17
2022-08-12T08:56:31.234Z,37.32
2022-08-12T08:58:59.425Z,37.21
2022-08-12T09:01:26.803Z,36.64
2022-08-12T09:05:08.116Z,35.33
2022-08-12T09:06:58.429Z,36.49
2022-08-12T09:09:34.053Z,36.55
2022-08-12T09:12:32.266Z,34.80
2022-08-12T09:14:58.832Z,36.74
2022-08-12T09:17:25.970Z,37.30
2022-08-12T09:19:57.430Z,38.34
2022-08-12T09:22:29.175Z,39.82
2022-08-12T09:24:56.183Z,38.55
2022-08-12T09:28:03.457Z,36.67
2022-08-12T09:30:16.925Z,35.45
2022-08-12T09:33:05.056Z,37.07
2022-08-12T09:35:43.618Z,39.82
2022-08-12T09:38:28.123Z,40.28
2022-08-12T09:42:09.352Z,41.08
2022-08-12T09:44:05.775Z,41.25
2022-08-12T09:46:34.588Z,37.40
2022-08-12T09:49:03.880Z,37.68
2022-08-12T09:51:37.586Z,37.17
2022-08-12T09:54:32.844Z,34.42
2022-08-12T09:58:46.900Z,34.35
2022-08-12T10:00:14.576Z,36.35
2022-08-12T10:03:05.967Z,35.66
2022-08-12T10:06:20.126Z,34.13
2022-08-12T10:08:27.353Z,36.38
2022-08-12T10:11:20.026Z,34.82
2022-08-12T10:13:48.602Z,33.53
2022-08-12T10:16:29.030Z,33.55
2022-08-12T10:19:01.314Z,33.40
2022-08-12T10:21:40.977Z,33.33
2022-08-12T10:24:15.672Z,32.97
2022-08-12T10:27:06.284Z,33.45
2022-08-12T10:30:37.334Z,33.06
2022-08-12T10:32:56.221Z,32.82
2022-08-12T10:35:14.539Z,33.20
2022-08-12T10:38:36.088Z,33.08
2022-08-12T10:40:33.260Z,33.84
2022-08-12T10:43:19.579Z,33.40
2022-08-12T10:45:48.867Z,32.30
2022-08-12T10:48:21.727Z,31.57
2022-08-12T10:51:02.112Z,31.54
2022-08-12T10:53:46.163Z,31.60
2022-08-12T10:56:17.342Z,31.66
2022-08-12T10:58:47.987Z,34.40
2022-08-12T11:01:49.294Z,36.07
2022-08-12T11:04:35.443Z,33.18
2022-08-12T11:07:03.478Z,33.54
2022-08-12T11:10:00.444Z,37.07
2022-08-12T11:12:55.067Z,33.92
2022-08-12T11:15:20.448Z,35.99
2022-08-12T11:17:52.559Z,33.51
2022-08-12T11:20:21.045Z,34.72
2022-08-12T11:23:03.910Z,34.26
2022-08-12T11:25:57.437Z,33.30
2022-08-12T11:28:33.939Z,32.67
2022-08-12T11:31:03.357Z,33.63
2022-08-12T11:34:04.455Z,35.66
2022-08-12T11:36:17.281Z,31.96
2022-08-12T11:38:50.480Z,30.60
2022-08-12T11:41:31.076Z,31.20
2022-08-12T11:44:36.065Z,28.61
2022-08-12T11:46:51.447Z,29.99
2022-08-12T11:49:31.283Z,28.32
2022-08-12T11:52:00.403Z,31.07
2022-08-12T11:54:29.633Z,29.57
2022-08-12T11:56:59.488Z,30.50
2022-08-12T12:02:16.414Z,31.12
2022-08-12T12:04:45.395Z,29.97
2022-08-12T12:07:18.808Z,30.83
2022-08-12T12:09:53.028Z,30.64
2022-08-12T12:12:22.541Z,30.43
2022-08-12T12:14:54.630Z,30.06
2022-08-12T12:17:24.193Z,29.68
2022-08-12T12:19:53.005Z,28.90
2022-08-12T12:22:23.255Z,28.72
2022-08-12T12:24:53.947Z,28.92
2022-08-12T12:27:20.643Z,27.86
2022-08-12T12:30:17.491Z,27.86
2022-08-12T12:32:53.951Z,27.77
2022-08-12T12:36:18.356Z,27.31
2022-08-12T12:38:12.002Z,26.81
2022-08-12T12:40:41.692Z,26.90
2022-08-12T12:43:10.651Z,26.96
2022-08-12T12:45:39.270Z,25.82
2022-08-12T12:48:19.720Z,26.46
2022-08-12T12:50:51.848Z,26.52
2022-08-12T12:54:08.845Z,25.57
2022-08-12T12:56:15.321Z,24.83
2022-08-12T12:58:43.598Z,25.84
2022-08-12T13:01:26.645Z,24.35
2022-08-12T13:04:01.624Z,23.33
2022-08-12T13:06:30.721Z,24.43
2022-08-12T13:09:02.642Z,23.20
2022-08-12T13:11:40.646Z,23.89
2022-08-12T13:14:12.647Z,22.45
2022-08-12T13:16:55.155Z,22.70
2022-08-12T13:19:36.626Z,21.52
2022-08-12T13:22:19.938Z,20.59
2022-08-12T13:24:56.585Z,20.85
2022-08-12T13:27:35.629Z,20.73
2022-08-12T13:30:14.101Z,22.45
2022-08-12T13:32:56.813Z,22.43
2022-08-12T13:35:33.511Z,22.60
2022-08-12T13:38:26.734Z,23.39
2022-08-12T13:41:02.216Z,23.47
2022-08-12T13:43:41.457Z,22.14
2022-08-12T13:46:12.380Z,21.12
2022-08-12T13:48:45.062Z,21.47
2022-08-12T13:51:12.679Z,23.09
2022-08-12T13:53:59.084Z,23.20
2022-08-12T13:56:30.552Z,23.29
2022-08-12T13:59:05.647Z,22.28
2022-08-12T14:01:40.027Z,22.89
2022-08-12T14:04:08.205Z,23.75
2022-08-12T14:06:38.769Z,22.99
2022-08-12T14:09:15.410Z,23.44
2022-08-12T14:11:51.143Z,21.64
2022-08-12T14:14:21.256Z,21.49
2022-08-12T14:16:52.196Z,22.21
2022-08-12T14:19:24.982Z,21.15
2022-08-12T14:21:59.124Z,21.67
2022-08-12T14:24:27.350Z,23.50
2022-08-12T14:27:01.916Z,22.83
2022-08-12T14:29:55.790Z,21.97
2022-08-12T14:32:17.592Z,23.03
2022-08-12T14:34:46.788Z,23.19
2022-08-12T14:37:55.255Z,23.37
2022-08-12T14:40:00.440Z,23.76
2022-08-12T14:42:28.041Z,23.56
2022-08-12T14:45:01.311Z,23.79
2022-08-12T14:47:35.467Z,24.18
2022-08-12T14:50:41.494Z,23.30
2022-08-12T14:58:25.220Z,22.73
2022-08-12T15:01:11.431Z,24.01
2022-08-12T15:03:52.261Z,20.74
2022-08-12T15:06:44.717Z,22.68
2022-08-12T15:09:11.886Z,21.60
2022-08-12T15:11:54.962Z,21.22
2022-08-12T15:14:25.381Z,21.10
2022-08-12T15:16:52.719Z,20.60
2022-08-12T15:20:12.121Z,22.45
2022-08-12T15:22:38.644Z,21.59
2022-08-12T15:24:53.351Z,24.96
2022-08-12T15:27:22.164Z,24.83
2022-08-12T15:29:58.029Z,25.57
2022-08-12T15:32:32.353Z,23.89
2022-08-12T15:35:00.527Z,23.41
2022-08-12T15:38:08.175Z,24.95
2022-08-12T15:40:14.042Z,26.55
2022-08-12T15:42:40.716Z,24.65
2022-08-12T15:45:21.331Z,25.62
2022-08-12T15:47:53.461Z,26.00
2022-08-12T15:50:40.840Z,28.02
2022-08-12T15:53:15.162Z,26.78
2022-08-12T15:55:46.025Z,27.88
2022-08-12T15:58:13.483Z,29.29
2022-08-12T16:00:43.582Z,29.31
2022-08-12T16:03:14.230Z,29.66
2022-08-12T16:06:13.066Z,30.29
2022-08-12T16:08:36.280Z,27.99
2022-08-12T16:11:07.072Z,28.82
2022-08-12T16:13:35.130Z,28.80
2022-08-12T16:16:12.501Z,26.98
2022-08-12T16:18:51.265Z,27.71
2022-08-12T16:21:52.391Z,29.86
2022-08-12T16:24:07.336Z,28.61
2022-08-12T16:26:36.554Z,27.98
2022-08-12T16:29:15.664Z,27.35
2022-08-12T16:31:44.505Z,29.11
2022-08-12T16:34:25.692Z,30.37
2022-08-12T16:37:03.193Z,29.67
2022-08-12T16:39:57.391Z,27.01
2022-08-12T16:42:22.559Z,29.87
2022-08-12T16:44:54.364Z,31.33
2022-08-12T16:47:23.494Z,31.50
2022-08-12T16:49:55.618Z,31.29
2022-08-12T16:52:22.384Z,32.12
2022-08-12T16:54:50.016Z,32.65
2022-08-12T16:57:16.447Z,31.42
2022-08-12T16:59:54.703Z,32.09
2022-08-12T17:02:33.466Z,31.85
2022-08-12T17:05:03.367Z,33.65
2022-08-12T17:07:36.310Z,30.70
2022-08-12T17:10:06.789Z,30.70
2022-08-12T17:12:33.475Z,29.03
2022-08-12T17:15:51.274Z,28.15
2022-08-12T17:18:15.316Z,30.58
2022-08-12T17:20:47.365Z,31.86
2022-08-12T17:23:16.648Z,28.92
2022-08-12T17:25:49.894Z,28.81
2022-08-12T17:28:18.365Z,33.31
2022-08-12T17:30:45.557Z,30.60
2022-08-12T17:33:24.977Z,28.27
2022-08-12T17:35:51.995Z,29.88
2022-08-12T17:38:20.833Z,27.16
2022-08-12T17:40:47.703Z,26.98
2022-08-12T17:43:54.601Z,26.97
2022-08-12T17:46:04.049Z,27.31
2022-08-12T17:48:34.354Z,28.89
2022-08-12T17:51:07.006Z,26.65
2022-08-12T17:54:05.767Z,26.75
2022-08-12T17:56:27.652Z,29.04
2022-08-12T17:58:58.956Z,26.95
2022-08-12T18:01:25.762Z,27.27
2022-08-12T18:04:21.391Z,26.74
2022-08-12T18:06:49.219Z,25.94
2022-08-12T18:09:17.627Z,26.45
2022-08-12T18:12:07.710Z,26.92
2022-08-12T18:14:37.275Z,27.72
2022-08-12T18:17:08.619Z,26.10
2022-08-12T18:20:05.224Z,26.31
2022-08-12T18:22:31.628Z,25.83
2022-08-12T18:25:06.262Z,27.17
2022-08-12T18:27:44.846Z,27.65
2022-08-12T18:30:20.969Z,30.80
2022-08-12T18:33:04.736Z,27.93
2022-08-12T18:35:47.846Z,26.39
2022-08-12T18:38:22.231Z,26.83
2022-08-12T18:41:09.567Z,27.48
2022-08-12T18:43:59.358Z,28.27
2022-08-12T18:46:55.411Z,27.80
2022-08-12T18:49:39.280Z,28.90
2022-08-12T18:52:07.989Z,27.85
2022-08-12T18:54:41.436Z,27.83
2022-08-12T18:57:45.771Z,27.70
2022-08-12T19:00:06.868Z,28.02
2022-08-12T19:02:40.056Z,28.34
2022-08-12T19:05:11.686Z,28.21
2022-08-12T19:07:58.134Z,28.36
2022-08-12T19:10:29.756Z,28.01
2022-08-12T19:13:21.070Z,28.55
2022-08-12T19:15:53.155Z,28.49
2022-08-12T19:18:22.117Z,28.42
2022-08-12T19:20:50.669Z,29.47
2022-08-12T19:23:21.420Z,29.81
2022-08-12T19:25:59.769Z,29.89
2022-08-12T19:28:34.473Z,30.18
2022-08-12T19:31:45.062Z,30.20
2022-08-12T19:35:32.899Z,30.13
2022-08-12T19:38:02.991Z,30.30
2022-08-12T19:40:31.392Z,30.56
2022-08-12T19:43:17.262Z,30.40
2022-08-12T19:45:57.093Z,30.86
2022-08-12T19:48:30.576Z,30.74
2022-08-12T19:50:58.965Z,30.93
2022-08-12T19:53:57.024Z,31.21
2022-08-12T19:56:21.723Z,31.23
2022-08-12T19:58:52.080Z,30.57
2022-08-12T20:01:21.558Z,30.60
2022-08-12T20:03:57.443Z,31.00
2022-08-12T20:06:29.298Z,31.32
2022-08-12T20:08:57.964Z,32.08
2022-08-12T20:12:12.353Z,31.61
2022-08-12T20:14:18.975Z,31.63
2022-08-12T20:16:53.228Z,31.90
2022-08-12T20:20:01.252Z,31.81
2022-08-12T20:22:24.254Z,31.79
2022-08-12T20:24:57.748Z,32.09
2022-08-12T20:27:29.627Z,31.82
2022-08-12T20:30:13.775Z,31.94
2022-08-12T20:32:54.943Z,32.05
2022-08-12T20:35:24.582Z,32.21
2022-08-12T20:38:05.161Z,32.16
2022-08-12T20:40:38.549Z,32.08
2022-08-12T20:43:06.703Z,33.05
2022-08-12T20:45:44.698Z,33.18
2022-08-12T20:48:17.850Z,33.43
2022-08-12T20:50:53.497Z,33.56
2022-08-12T20:53:33.314Z,34.11
2022-08-12T20:56:34.182Z,34.33
2022-08-12T20:59:05.889Z,34.27
2022-08-12T21:01:47.105Z,34.08
2022-08-12T21:04:35.452Z,34.21
2022-08-12T21:07:04.669Z,34.65
2022-08-12T21:09:48.133Z,35.01
2022-08-12T21:12:28.361Z,34.91
2022-08-12T21:15:24.103Z,35.55
2022-08-12T21:18:09.867Z,35.42
2022-08-12T21:20:38.457Z,35.56
2022-08-12T21:23:08.776Z,35.49
2022-08-12T21:25:35.963Z,35.79
2022-08-12T21:28:11.602Z,36.24
2022-08-12T21:30:43.010Z,36.40
2022-08-12T21:33:30.773Z,36.82
2022-08-12T21:35:58.146Z,36.78
2022-08-12T21:38:34.296Z,37.20
2022-08-12T21:41:01.136Z,36.91
2022-08-12T21:43:38.841Z,37.14
2022-08-12T21:46:15.016Z,37.59
2022-08-12T21:49:04.072Z,37.84
2022-08-12T21:51:49.525Z,38.51
2022-08-12T21:54:21.670Z,38.83
2022-08-12T21:56:49.283Z,38.77
2022-08-12T21:59:17.575Z,39.23
2022-08-12T22:01:49.196Z,39.12
2022-08-12T22:04:34.916Z,39.21
2022-08-12T22:07:01.603Z,39.78
2022-08-12T22:09:29.828Z,40.16
2022-08-12T22:12:28.788Z,40.14
2022-08-12T22:14:55.360Z,40.30
2022-08-12T22:17:21.830Z,40.68
2022-08-12T22:19:50.407Z,40.89
2022-08-12T22:22:16.872Z,41.21
2022-08-12T22:24:45.440Z,40.97
2022-08-12T22:27:31.375Z,41.03
2022-08-12T22:30:19.642Z,41.51
2022-08-12T22:32:51.478Z,42.12
2022-08-12T22:35:55.913Z,42.38
2022-08-12T22:38:23.774Z,42.36
2022-08-12T22:41:01.710Z,42.80
2022-08-12T22:44:00.710Z,43.01
2022-08-12T22:46:33.209Z,43.16
2022-08-12T22:48:59.695Z,43.53
2022-08-12T22:51:26.592Z,43.54
2022-08-12T22:53:55.462Z,43.48
2022-08-12T22:56:31.068Z,43.54
2022-08-12T22:59:02.618Z,43.76
2022-08-12T23:01:52.564Z,44.00
2022-08-12T23:04:27.658Z,44.52
2022-08-12T23:06:57.025Z,44.94
2022-08-12T23:09:28.029Z,45.29
2022-08-12T23:12:22.479Z,45.67
2022-08-12T23:14:51.607Z,45.73
2022-08-12T23:17:21.198Z,45.63
2022-08-12T23:20:04.833Z,45.96
2022-08-12T23:23:05.581Z,45.67
2022-08-12T23:25:18.785Z,45.37
2022-08-12T23:28:04.305Z,46.43
2022-08-12T23:30:31.083Z,46.67
2022-08-12T23:33:00.574Z,46.46
2022-08-12T23:35:45.799Z,46.71
2022-08-12T23:38:30.946Z,47.07
2022-08-12T23:41:01.205Z,47.00
2022-08-12T23:43:39.301Z,47.29
2022-08-12T23:46:19.468Z,47.32
2022-08-12T23:48:48.149Z,47.71
2022-08-12T23:51:21.974Z,47.70
2022-08-12T23:53:51.096Z,47.62
2022-08-12T23:56:17.742Z,47.95
2022-08-12T23:58:52.435Z,47.94
